Time;durP1;ratioP1;P1;durP2;ratioP2;P2;SDS_P1;SDS_P2;PMS_P1;PMS_P2;Temp;Humidity;BMP_temperature;BMP_pressure;BME280_temperature;BME280_humidity;BME280_pressure;Samples;Min_cycle;Max_cycle;Signal;HPM_P1;HPM_P2
2021/10/20 00:00:06;;;;;;;15.80;12.35;;;;;;;;;;6279245;22;20429;-63
2021/10/20 00:02:32;;;;;;;16.08;12.18;;;;;;;;;;6279088;22;20281;-63
2021/10/20 00:04:58;;;;;;;14.57;11.63;;;;;;;;;;6279617;22;20493;-64
2021/10/20 00:07:24;;;;;;;19.75;13.07;;;;;;;;;;6279126;22;20143;-64
2021/10/20 00:09:49;;;;;;;15.68;11.57;;;;;;;;;;6279503;22;20420;-63
2021/10/20 00:12:15;;;;;;;15.68;11.77;;;;;;;;;;6279789;22;20150;-63
2021/10/20 00:14:41;;;;;;;17.27;13.07;;;;;;;;;;6280063;22;20147;-63
2021/10/20 00:17:07;;;;;;;17.38;11.90;;;;;;;;;;6279818;22;20153;-63
2021/10/20 00:19:33;;;;;;;16.30;12.63;;;;;;;;;;6278385;22;20139;-63
2021/10/20 00:21:59;;;;;;;17.63;12.32;;;;;;;;;;6277738;22;20167;-63
2021/10/20 00:24:25;;;;;;;13.63;10.95;;;;;;;;;;6278472;22;20138;-63
2021/10/20 00:26:51;;;;;;;15.95;12.18;;;;;;;;;;6278209;22;20642;-63
2021/10/20 00:29:17;;;;;;;16.50;12.75;;;;;;;;;;6278339;22;20208;-63
2021/10/20 00:31:43;;;;;;;16.85;12.20;;;;;;;;;;6277942;22;20143;-63
2021/10/20 00:34:09;;;;;;;13.60;11.77;;;;;;;;;;6277569;22;20490;-63
2021/10/20 00:36:35;;;;;;;17.20;13.27;;;;;;;;;;6277483;22;20167;-63
2021/10/20 00:39:00;;;;;;;16.05;12.30;;;;;;;;;;6277507;22;20135;-63
2021/10/20 00:41:30;;;;;;;14.45;11.25;;;;;;;;;;6277326;22;20192;-64
2021/10/20 00:43:56;;;;;;;14.10;11.60;;;;;;;;;;6277896;22;20170;-63
2021/10/20 00:46:26;;;;;;;16.65;13.05;;;;;;;;;;6277742;22;20139;-62
2021/10/20 00:48:51;;;;;;;17.58;13.02;;;;;;;;;;6277931;22;20439;-63
2021/10/20 00:51:18;;;;;;;15.40;11.50;;;;;;;;;;6278222;22;20174;-63
2021/10/20 00:53:43;;;;;;;16.58;13.32;;;;;;;;;;6277813;22;20539;-63
2021/10/20 00:56:09;;;;;;;16.63;12.13;;;;;;;;;;6278180;22;20196;-63
2021/10/20 00:58:37;;;;;;;15.48;12.65;;;;;;;;;;6277509;22;20151;-63
2021/10/20 01:01:03;;;;;;;14.95;12.45;;;;;;;;;;6278041;22;20143;-63
2021/10/20 01:03:29;;;;;;;16.67;13.45;;;;;;;;;;6277588;22;20467;-63
2021/10/20 01:05:55;;;;;;;14.65;12.90;;;;;;;;;;6278170;22;20147;-63
2021/10/20 01:08:21;;;;;;;14.30;12.45;;;;;;;;;;6278174;22;20139;-63
2021/10/20 01:10:47;;;;;;;16.85;13.23;;;;;;;;;;6278415;22;20139;-63
2021/10/20 01:13:13;;;;;;;16.33;13.48;;;;;;;;;;6277751;22;20547;-63
2021/10/20 01:15:39;;;;;;;16.08;13.75;;;;;;;;;;6277899;22;20150;-63
2021/10/20 01:18:05;;;;;;;16.85;13.07;;;;;;;;;;6277784;22;20204;-63
2021/10/20 01:20:33;;;;;;;15.63;13.13;;;;;;;;;;6278289;22;20154;-63
2021/10/20 01:22:59;;;;;;;14.45;12.68;;;;;;;;;;6278176;22;20177;-63
2021/10/20 01:25:25;;;;;;;14.93;12.48;;;;;;;;;;6278006;22;20151;-63
2021/10/20 01:27:51;;;;;;;15.82;12.85;;;;;;;;;;6278663;22;20135;-64
2021/10/20 01:30:17;;;;;;;13.63;11.52;;;;;;;;;;6278304;22;20158;-63
2021/10/20 01:32:43;;;;;;;17.55;13.52;;;;;;;;;;6278125;22;20454;-63
2021/10/20 01:35:09;;;;;;;18.15;13.65;;;;;;;;;;6278354;22;20143;-63
2021/10/20 01:37:35;;;;;;;19.00;13.65;;;;;;;;;;6251074;22;20162;-63
2021/10/20 01:40:02;;;;;;;16.95;12.75;;;;;;;;;;6278625;22;20154;-63
2021/10/20 01:42:29;;;;;;;14.63;12.43;;;;;;;;;;6277862;22;20194;-63
2021/10/20 01:44:55;;;;;;;15.20;13.30;;;;;;;;;;6278264;22;20139;-63
2021/10/20 01:47:21;;;;;;;13.13;11.13;;;;;;;;;;6278429;22;20150;-63
2021/10/20 01:49:48;;;;;;;14.35;11.52;;;;;;;;;;6278152;22;20149;-63
2021/10/20 01:52:14;;;;;;;13.50;11.85;;;;;;;;;;6278455;22;20139;-63
2021/10/20 01:54:40;;;;;;;16.83;13.52;;;;;;;;;;6278189;22;20143;-63
2021/10/20 01:57:06;;;;;;;16.70;12.65;;;;;;;;;;6277586;22;20455;-63
2021/10/20 01:59:32;;;;;;;15.40;12.30;;;;;;;;;;6277579;22;20158;-63
2021/10/20 02:01:57;;;;;;;14.18;11.80;;;;;;;;;;6276927;22;20258;-63
2021/10/20 02:04:23;;;;;;;14.95;11.88;;;;;;;;;;6276848;22;20480;-63
2021/10/20 02:06:49;;;;;;;13.68;11.95;;;;;;;;;;6276900;22;20149;-63
2021/10/20 02:09:15;;;;;;;14.50;12.00;;;;;;;;;;6278398;22;20171;-63
2021/10/20 02:11:42;;;;;;;14.90;11.70;;;;;;;;;;6278494;22;20222;-64
2021/10/20 02:14:09;;;;;;;14.70;11.48;;;;;;;;;;6280104;22;20226;-62
2021/10/20 02:16:35;;;;;;;13.55;11.30;;;;;;;;;;6280050;22;20139;-62
2021/10/20 02:19:01;;;;;;;14.48;11.45;;;;;;;;;;6278986;22;20216;-64
2021/10/20 02:21:27;;;;;;;14.88;10.88;;;;;;;;;;6279725;22;20614;-64
2021/10/20 02:23:53;;;;;;;13.20;10.63;;;;;;;;;;6282911;22;20200;-64
2021/10/20 02:26:19;;;;;;;15.43;11.75;;;;;;;;;;6282968;22;20274;-63
2021/10/20 02:28:45;;;;;;;14.02;11.77;;;;;;;;;;6283004;22;20539;-63
2021/10/20 02:31:11;;;;;;;15.63;11.90;;;;;;;;;;6283156;22;20147;-63
2021/10/20 02:33:37;;;;;;;14.27;12.63;;;;;;;;;;6282456;22;20146;-63
2021/10/20 02:36:03;;;;;;;14.13;10.60;;;;;;;;;;6283580;22;20140;-63
2021/10/20 02:38:29;;;;;;;14.60;10.93;;;;;;;;;;6283479;22;20139;-63
2021/10/20 02:40:55;;;;;;;12.25;10.38;;;;;;;;;;6282302;22;20136;-64
2021/10/20 02:43:21;;;;;;;13.15;10.82;;;;;;;;;;6282756;22;20171;-62
2021/10/20 02:45:47;;;;;;;13.80;10.23;;;;;;;;;;6282330;22;20218;-62
2021/10/20 02:48:13;;;;;;;12.20;10.80;;;;;;;;;;6281191;22;20146;-64
2021/10/20 02:50:39;;;;;;;14.40;9.65;;;;;;;;;;6279336;22;20146;-64
2021/10/20 02:53:05;;;;;;;11.68;9.35;;;;;;;;;;6281286;22;20181;-63
2021/10/20 02:55:31;;;;;;;13.90;10.70;;;;;;;;;;6281304;22;20135;-63
2021/10/20 02:57:57;;;;;;;11.57;9.55;;;;;;;;;;6281915;22;20173;-63
2021/10/20 03:00:23;;;;;;;11.68;10.48;;;;;;;;;;6280554;22;20218;-63
2021/10/20 03:02:49;;;;;;;13.48;9.90;;;;;;;;;;6279062;22;20167;-63
2021/10/20 03:05:15;;;;;;;11.55;9.45;;;;;;;;;;6279053;22;20171;-63
2021/10/20 03:07:52;;;;;;;11.90;9.85;;;;;;;;;;6278539;22;20203;-63
2021/10/20 03:10:18;;;;;;;11.75;9.82;;;;;;;;;;6278395;22;20124;-63
2021/10/20 03:12:44;;;;;;;12.20;9.57;;;;;;;;;;6279893;22;20284;-63
2021/10/20 03:15:11;;;;;;;13.18;9.75;;;;;;;;;;6280927;22;20154;-63
2021/10/20 03:17:37;;;;;;;12.98;10.07;;;;;;;;;;6280231;22;20139;-63
2021/10/20 03:20:08;;;;;;;10.82;9.40;;;;;;;;;;6279837;22;20144;-63
2021/10/20 03:22:34;;;;;;;11.95;10.00;;;;;;;;;;6279485;22;20173;-64
2021/10/20 03:25:00;;;;;;;11.43;9.35;;;;;;;;;;6279697;22;20150;-64
2021/10/20 03:27:27;;;;;;;12.75;9.80;;;;;;;;;;6278072;22;20132;-63
2021/10/20 03:29:53;;;;;;;12.25;9.60;;;;;;;;;;6278764;22;20585;-63
2021/10/20 03:32:19;;;;;;;12.57;8.35;;;;;;;;;;6278658;22;20149;-63
2021/10/20 03:34:45;;;;;;;11.82;9.20;;;;;;;;;;6278186;22;20143;-63
2021/10/20 03:37:11;;;;;;;11.30;9.15;;;;;;;;;;6280149;22;20614;-63
2021/10/20 03:39:37;;;;;;;10.32;8.95;;;;;;;;;;6278237;22;20149;-63
2021/10/20 03:42:03;;;;;;;10.82;8.23;;;;;;;;;;6279470;22;20171;-63
2021/10/20 03:44:29;;;;;;;11.68;9.07;;;;;;;;;;6278179;22;20135;-63
2021/10/20 03:46:55;;;;;;;9.68;8.25;;;;;;;;;;6277424;22;20139;-63
2021/10/20 03:49:21;;;;;;;11.25;8.40;;;;;;;;;;6277995;22;20222;-63
2021/10/20 03:51:46;;;;;;;11.27;8.07;;;;;;;;;;6277938;22;20146;-63
2021/10/20 03:54:12;;;;;;;9.63;8.00;;;;;;;;;;6281162;22;20539;-63
2021/10/20 03:56:38;;;;;;;10.38;7.80;;;;;;;;;;6282996;22;20139;-63
2021/10/20 03:59:04;;;;;;;9.43;8.43;;;;;;;;;;6282849;22;20436;-63
2021/10/20 04:01:30;;;;;;;9.02;7.70;;;;;;;;;;6283785;22;20135;-63
2021/10/20 04:03:56;;;;;;;9.85;7.53;;;;;;;;;;6283121;22;20177;-63
2021/10/20 04:06:22;;;;;;;10.10;7.55;;;;;;;;;;6283483;22;20143;-63
2021/10/20 04:08:48;;;;;;;8.90;7.25;;;;;;;;;;6281717;22;20150;-63
2021/10/20 04:11:14;;;;;;;8.65;7.35;;;;;;;;;;6282195;22;20214;-63
2021/10/20 04:13:40;;;;;;;7.45;6.50;;;;;;;;;;6282552;22;20173;-63
2021/10/20 04:16:06;;;;;;;7.90;6.78;;;;;;;;;;6256327;22;20158;-63
2021/10/20 04:18:32;;;;;;;7.60;6.53;;;;;;;;;;6282670;22;20558;-63
2021/10/20 04:20:57;;;;;;;9.90;7.53;;;;;;;;;;6282077;22;20551;-63
2021/10/20 04:23:23;;;;;;;11.32;7.68;;;;;;;;;;6280026;22;20249;-63
2021/10/20 04:25:49;;;;;;;8.38;6.72;;;;;;;;;;6280056;22;20241;-63
2021/10/20 04:28:15;;;;;;;10.88;6.95;;;;;;;;;;6280354;22;20135;-63
2021/10/20 04:30:41;;;;;;;8.50;6.50;;;;;;;;;;6280247;22;20144;-63
2021/10/20 04:33:07;;;;;;;8.77;6.45;;;;;;;;;;6281282;22;20222;-63
2021/10/20 04:35:33;;;;;;;9.02;6.88;;;;;;;;;;6279876;22;20150;-63
2021/10/20 04:38:00;;;;;;;9.60;7.45;;;;;;;;;;6280932;22;20139;-63
2021/10/20 04:40:26;;;;;;;9.40;6.72;;;;;;;;;;6279104;22;20203;-63
2021/10/20 04:42:52;;;;;;;9.27;6.95;;;;;;;;;;6279060;22;20213;-63
2021/10/20 04:45:17;;;;;;;7.47;6.68;;;;;;;;;;6278628;22;20146;-63
2021/10/20 04:47:43;;;;;;;11.63;6.90;;;;;;;;;;6278009;22;20204;-63
2021/10/20 04:50:10;;;;;;;9.35;6.32;;;;;;;;;;6277865;22;20146;-63
2021/10/20 04:52:36;;;;;;;8.48;7.07;;;;;;;;;;6278006;22;20459;-63
2021/10/20 04:55:03;;;;;;;9.30;7.15;;;;;;;;;;6278095;22;20438;-63
2021/10/20 04:57:29;;;;;;;8.98;6.95;;;;;;;;;;6277518;22;20139;-64
2021/10/20 04:59:56;;;;;;;9.55;7.22;;;;;;;;;;6277738;22;20147;-63
2021/10/20 05:02:22;;;;;;;9.48;6.95;;;;;;;;;;6278073;22;20167;-63
2021/10/20 05:04:48;;;;;;;8.30;6.68;;;;;;;;;;6277227;22;20207;-63
2021/10/20 05:07:14;;;;;;;13.70;6.78;;;;;;;;;;6277951;22;20200;-63
2021/10/20 05:09:41;;;;;;;8.30;6.72;;;;;;;;;;6277343;22;20136;-63
2021/10/20 05:12:07;;;;;;;10.10;7.00;;;;;;;;;;6277579;22;20497;-63
2021/10/20 05:14:32;;;;;;;8.80;6.57;;;;;;;;;;6277503;22;20143;-63
2021/10/20 05:16:58;;;;;;;10.73;6.90;;;;;;;;;;6277684;22;20143;-63
2021/10/20 05:19:24;;;;;;;8.23;6.30;;;;;;;;;;6277288;22;20139;-63
2021/10/20 05:21:50;;;;;;;7.78;6.47;;;;;;;;;;6277416;22;20144;-63
2021/10/20 05:24:16;;;;;;;8.80;6.25;;;;;;;;;;6277313;22;20150;-63
2021/10/20 05:26:42;;;;;;;7.50;6.18;;;;;;;;;;6277433;22;20567;-62
2021/10/20 05:29:08;;;;;;;13.13;6.88;;;;;;;;;;6277631;22;20143;-64
2021/10/20 05:31:34;;;;;;;7.63;6.18;;;;;;;;;;6277817;22;20154;-64
2021/10/20 05:34:00;;;;;;;7.82;6.38;;;;;;;;;;6277033;22;20435;-64
2021/10/20 05:36:26;;;;;;;7.28;6.53;;;;;;;;;;6277402;22;20188;-63
2021/10/20 05:38:52;;;;;;;7.10;6.10;;;;;;;;;;6277311;22;20569;-63
2021/10/20 05:41:18;;;;;;;7.32;5.85;;;;;;;;;;6276865;22;20139;-63
2021/10/20 05:43:44;;;;;;;9.88;6.15;;;;;;;;;;6250288;22;20171;-63
2021/10/20 05:46:10;;;;;;;8.55;6.15;;;;;;;;;;6277051;22;20146;-63
2021/10/20 05:48:36;;;;;;;8.10;6.13;;;;;;;;;;6277236;22;20491;-63
2021/10/20 05:51:02;;;;;;;8.05;6.47;;;;;;;;;;6277095;22;20143;-63
2021/10/20 05:53:27;;;;;;;7.10;6.20;;;;;;;;;;6277144;22;20201;-63
2021/10/20 05:55:55;;;;;;;8.70;6.53;;;;;;;;;;6277201;22;20158;-63
2021/10/20 05:58:21;;;;;;;7.82;6.00;;;;;;;;;;6277337;22;20147;-63
2021/10/20 06:00:47;;;;;;;8.80;6.75;;;;;;;;;;6276728;22;20197;-63
2021/10/20 06:03:13;;;;;;;9.88;6.00;;;;;;;;;;6277570;22;20199;-63
2021/10/20 06:05:39;;;;;;;8.68;6.38;;;;;;;;;;6277897;22;20147;-63
2021/10/20 06:08:05;;;;;;;7.03;6.22;;;;;;;;;;6278093;22;20197;-63
2021/10/20 06:10:33;;;;;;;8.38;5.57;;;;;;;;;;6277944;22;20246;-64
2021/10/20 06:12:59;;;;;;;7.25;5.90;;;;;;;;;;6278030;22;20153;-63
2021/10/20 06:15:25;;;;;;;7.90;5.80;;;;;;;;;;6277243;22;20230;-63
2021/10/20 06:17:51;;;;;;;9.52;5.70;;;;;;;;;;6277406;22;20169;-63
2021/10/20 06:20:17;;;;;;;8.13;5.82;;;;;;;;;;6276784;22;20472;-63
2021/10/20 06:22:43;;;;;;;6.22;5.45;;;;;;;;;;6276829;22;20246;-63
2021/10/20 06:25:10;;;;;;;9.23;5.43;;;;;;;;;;6276765;22;20609;-63
2021/10/20 06:27:36;;;;;;;6.18;5.57;;;;;;;;;;6276694;22;20132;-63
2021/10/20 06:30:02;;;;;;;6.10;5.43;;;;;;;;;;6276694;22;20144;-63
2021/10/20 06:32:28;;;;;;;8.88;5.35;;;;;;;;;;6276771;22;20143;-63
2021/10/20 06:34:54;;;;;;;6.70;5.53;;;;;;;;;;6277357;22;20480;-63
2021/10/20 06:37:20;;;;;;;7.70;6.28;;;;;;;;;;6278076;22;20140;-63
2021/10/20 06:39:46;;;;;;;7.07;5.65;;;;;;;;;;6278653;22;20193;-63
2021/10/20 06:42:11;;;;;;;6.35;5.43;;;;;;;;;;6279850;22;20586;-63
2021/10/20 06:44:37;;;;;;;8.32;5.18;;;;;;;;;;6279464;22;20143;-63
2021/10/20 06:47:03;;;;;;;6.28;5.15;;;;;;;;;;6278929;22;20139;-63
2021/10/20 06:49:29;;;;;;;5.78;5.18;;;;;;;;;;6279418;22;20139;-63
2021/10/20 06:51:55;;;;;;;7.10;4.85;;;;;;;;;;6278946;22;20155;-63
2021/10/20 06:54:21;;;;;;;7.45;5.25;;;;;;;;;;6252351;22;20170;-64
2021/10/20 06:56:48;;;;;;;5.35;4.85;;;;;;;;;;6278719;22;20447;-63
2021/10/20 06:59:14;;;;;;;7.82;5.13;;;;;;;;;;6278798;22;20511;-63
2021/10/20 07:01:40;;;;;;;6.03;5.15;;;;;;;;;;6278964;22;20561;-63
2021/10/20 07:04:06;;;;;;;5.20;4.68;;;;;;;;;;6278905;22;20143;-63
2021/10/20 07:06:32;;;;;;;6.13;5.32;;;;;;;;;;6277433;22;20167;-63
2021/10/20 07:08:58;;;;;;;6.90;5.28;;;;;;;;;;6277811;22;20143;-64
2021/10/20 07:11:24;;;;;;;6.10;4.65;;;;;;;;;;6276977;22;20429;-63
2021/10/20 07:13:50;;;;;;;7.60;5.25;;;;;;;;;;6277415;22;20162;-63
2021/10/20 07:16:16;;;;;;;6.03;4.80;;;;;;;;;;6277126;22;20140;-63
2021/10/20 07:18:42;;;;;;;5.38;4.78;;;;;;;;;;6280129;22;20200;-63
2021/10/20 07:21:08;;;;;;;5.10;4.57;;;;;;;;;;6281397;22;20510;-63
2021/10/20 07:23:34;;;;;;;5.25;4.75;;;;;;;;;;6282889;22;20174;-64
2021/10/20 07:26:00;;;;;;;5.65;4.78;;;;;;;;;;6282838;22;20174;-64
2021/10/20 07:28:26;;;;;;;5.07;4.57;;;;;;;;;;6285282;22;20136;-64
2021/10/20 07:30:52;;;;;;;7.03;4.78;;;;;;;;;;6285316;22;20150;-64
2021/10/20 07:33:18;;;;;;;5.70;5.10;;;;;;;;;;6285150;22;20144;-64
2021/10/20 07:35:44;;;;;;;5.60;4.53;;;;;;;;;;6284940;22;20241;-64
2021/10/20 07:38:10;;;;;;;6.93;4.93;;;;;;;;;;6285438;22;20143;-64
2021/10/20 07:40:36;;;;;;;6.43;5.10;;;;;;;;;;6285071;22;20151;-66
2021/10/20 07:43:02;;;;;;;5.40;4.70;;;;;;;;;;6285468;22;20546;-64
2021/10/20 07:45:28;;;;;;;6.40;5.15;;;;;;;;;;6280865;22;20170;-64
2021/10/20 07:47:54;;;;;;;6.90;4.97;;;;;;;;;;6280773;22;20139;-65
2021/10/20 07:50:20;;;;;;;8.40;4.85;;;;;;;;;;6279561;22;20196;-65
2021/10/20 07:52:49;;;;;;;7.30;4.75;;;;;;;;;;6279976;22;20143;-65
2021/10/20 07:55:20;;;;;;;7.32;5.13;;;;;;;;;;6279527;22;20170;-65
2021/10/20 07:57:46;;;;;;;6.30;4.95;;;;;;;;;;6279669;22;20710;-65
2021/10/20 08:00:13;;;;;;;5.78;4.93;;;;;;;;;;6279532;22;20174;-65
2021/10/20 08:02:39;;;;;;;8.02;5.22;;;;;;;;;;6279261;22;20162;-65
2021/10/20 08:05:05;;;;;;;7.05;5.05;;;;;;;;;;6279723;22;20157;-64
2021/10/20 08:07:31;;;;;;;6.22;4.88;;;;;;;;;;6279116;22;20135;-64
2021/10/20 08:09:57;;;;;;;8.02;4.95;;;;;;;;;;6279352;22;20142;-64
2021/10/20 08:12:23;;;;;;;5.68;4.93;;;;;;;;;;6279440;22;20186;-64
2021/10/20 08:14:53;;;;;;;6.18;5.07;;;;;;;;;;6281314;22;20147;-64
2021/10/20 08:17:19;;;;;;;5.63;4.70;;;;;;;;;;6280215;22;20197;-65
2021/10/20 08:19:45;;;;;;;5.93;4.65;;;;;;;;;;6279797;22;20166;-65
2021/10/20 08:22:11;;;;;;;6.18;4.93;;;;;;;;;;6279979;22;20574;-65
2021/10/20 08:24:37;;;;;;;6.65;4.93;;;;;;;;;;6280512;22;20132;-65
2021/10/20 08:27:02;;;;;;;5.80;4.60;;;;;;;;;;6279727;22;20470;-64
2021/10/20 08:29:29;;;;;;;7.22;4.55;;;;;;;;;;6279823;22;20135;-64
2021/10/20 08:31:55;;;;;;;5.68;4.68;;;;;;;;;;6280083;22;20166;-64
2021/10/20 08:34:22;;;;;;;5.43;4.93;;;;;;;;;;6280234;22;20135;-64
2021/10/20 08:36:48;;;;;;;6.65;4.75;;;;;;;;;;6280470;22;20154;-64
2021/10/20 08:39:14;;;;;;;9.25;5.00;;;;;;;;;;6279957;22;20442;-63
2021/10/20 08:41:40;;;;;;;5.75;4.53;;;;;;;;;;6279531;22;20605;-63
2021/10/20 08:44:07;;;;;;;5.00;4.50;;;;;;;;;;6279944;22;20143;-63
2021/10/20 08:46:33;;;;;;;5.13;4.45;;;;;;;;;;6279777;22;20144;-63
2021/10/20 08:49:00;;;;;;;6.30;4.82;;;;;;;;;;6281319;22;20144;-63
2021/10/20 08:51:26;;;;;;;5.63;4.93;;;;;;;;;;6279821;22;20447;-64
2021/10/20 08:53:52;;;;;;;5.40;4.88;;;;;;;;;;6280655;22;20210;-63
2021/10/20 08:56:18;;;;;;;6.47;4.43;;;;;;;;;;6279439;22;20461;-63
2021/10/20 08:58:45;;;;;;;6.93;4.85;;;;;;;;;;6280579;22;20222;-64
2021/10/20 09:01:11;;;;;;;8.70;5.05;;;;;;;;;;6280291;22;20477;-63
2021/10/20 09:03:37;;;;;;;6.30;5.13;;;;;;;;;;6279067;22;20246;-64
2021/10/20 09:06:04;;;;;;;7.78;5.18;;;;;;;;;;6278411;22;20166;-64
2021/10/20 09:08:45;;;;;;;6.80;5.63;;;;;;;;;;6277805;22;20150;-64
2021/10/20 09:11:33;;;;;;;7.32;5.30;;;;;;;;;;6280085;22;20186;-64
2021/10/20 09:14:04;;;;;;;7.28;5.30;;;;;;;;;;6279900;22;20147;-64
2021/10/20 09:16:31;;;;;;;7.03;5.57;;;;;;;;;;6277794;22;20563;-64
2021/10/20 09:19:10;;;;;;;7.85;5.70;;;;;;;;;;6278206;22;20453;-64
2021/10/20 09:21:46;;;;;;;8.32;5.80;;;;;;;;;;6279195;22;20159;-64
2021/10/20 09:24:12;;;;;;;10.85;5.28;;;;;;;;;;6278799;22;20135;-64
2021/10/20 09:26:38;;;;;;;8.52;5.72;;;;;;;;;;6278994;22;20652;-64
2021/10/20 09:29:18;;;;;;;9.38;5.85;;;;;;;;;;6281009;22;20188;-64
2021/10/20 09:31:44;;;;;;;8.75;6.60;;;;;;;;;;6281372;22;20268;-64
2021/10/20 09:34:10;;;;;;;7.60;5.80;;;;;;;;;;6282144;22;20223;-64
2021/10/20 09:36:36;;;;;;;11.75;6.60;;;;;;;;;;6282483;22;20147;-65
2021/10/20 09:39:02;;;;;;;7.20;6.47;;;;;;;;;;6282614;22;20144;-64
2021/10/20 09:41:28;;;;;;;8.43;6.13;;;;;;;;;;6282426;22;20435;-64
2021/10/20 09:43:56;;;;;;;6.72;6.05;;;;;;;;;;6282281;22;20167;-64
2021/10/20 09:46:32;;;;;;;8.32;6.55;;;;;;;;;;6282664;22;20146;-64
2021/10/20 09:49:02;;;;;;;6.82;5.68;;;;;;;;;;6282994;22;20139;-64
2021/10/20 09:51:28;;;;;;;7.30;6.30;;;;;;;;;;6282482;22;20191;-64
2021/10/20 09:53:54;;;;;;;7.43;5.90;;;;;;;;;;6282570;22;20139;-64
2021/10/20 09:56:31;;;;;;;6.68;5.78;;;;;;;;;;6282018;22;20143;-64
2021/10/20 09:58:57;;;;;;;8.63;6.70;;;;;;;;;;6282321;22;20142;-64
2021/10/20 10:01:24;;;;;;;8.63;6.00;;;;;;;;;;6282083;22;20570;-64
2021/10/20 10:03:50;;;;;;;6.97;5.82;;;;;;;;;;6282835;22;20530;-65
2021/10/20 10:06:16;;;;;;;9.38;6.18;;;;;;;;;;6282077;22;20409;-64
2021/10/20 10:08:43;;;;;;;7.35;5.85;;;;;;;;;;6283205;22;20135;-65
2021/10/20 10:11:09;;;;;;;7.00;5.72;;;;;;;;;;6282567;22;20135;-64
2021/10/20 10:13:49;;;;;;;6.80;5.38;;;;;;;;;;6283403;22;20142;-65
2021/10/20 10:16:16;;;;;;;6.63;5.75;;;;;;;;;;6283148;22;20143;-64
2021/10/20 10:18:42;;;;;;;6.82;5.80;;;;;;;;;;6282930;22;20150;-64
2021/10/20 10:21:26;;;;;;;6.35;5.75;;;;;;;;;;6282945;22;20139;-64
2021/10/20 10:23:54;;;;;;;7.28;6.00;;;;;;;;;;6282517;22;20181;-64
2021/10/20 10:26:20;;;;;;;8.07;6.10;;;;;;;;;;6282532;22;20592;-64
2021/10/20 10:29:04;;;;;;;7.50;6.20;;;;;;;;;;6281984;22;20194;-64
2021/10/20 10:31:38;;;;;;;8.95;5.78;;;;;;;;;;6281811;22;20134;-64
2021/10/20 10:34:04;;;;;;;8.77;6.25;;;;;;;;;;6281269;22;20629;-64
2021/10/20 10:36:30;;;;;;;6.75;5.93;;;;;;;;;;6280388;22;20151;-64
2021/10/20 10:38:59;;;;;;;7.03;5.95;;;;;;;;;;6278374;22;20550;-64
2021/10/20 10:41:27;;;;;;;7.95;6.22;;;;;;;;;;6277152;22;20242;-64
2021/10/20 10:44:02;;;;;;;9.13;6.13;;;;;;;;;;6280219;22;20170;-64
2021/10/20 10:46:30;;;;;;;8.27;6.18;;;;;;;;;;6281750;22;20493;-64
2021/10/20 10:48:56;;;;;;;7.68;6.72;;;;;;;;;;6282087;22;20135;-64
2021/10/20 10:51:22;;;;;;;7.75;6.07;;;;;;;;;;6282538;22;20195;-64
2021/10/20 10:53:52;;;;;;;8.88;6.03;;;;;;;;;;6280528;22;20143;-64
2021/10/20 10:56:18;;;;;;;6.68;6.00;;;;;;;;;;6281171;22;20158;-64
2021/10/20 10:58:56;;;;;;;7.88;5.95;;;;;;;;;;6281764;22;20143;-64
2021/10/20 11:01:42;;;;;;;7.75;6.15;;;;;;;;;;6282042;22;20160;-64
2021/10/20 11:04:16;;;;;;;7.97;6.50;;;;;;;;;;6283319;22;20170;-64
2021/10/20 11:06:42;;;;;;;10.18;7.68;;;;;;;;;;6284551;22;20170;-64
2021/10/20 11:09:08;;;;;;;6.80;5.82;;;;;;;;;;6283419;22;20559;-64
2021/10/20 11:11:35;;;;;;;6.50;5.82;;;;;;;;;;6283781;22;20135;-64
2021/10/20 11:14:01;;;;;;;6.22;5.63;;;;;;;;;;6283182;22;20150;-64
2021/10/20 11:16:27;;;;;;;7.30;5.95;;;;;;;;;;6284589;22;20578;-63
2021/10/20 11:18:54;;;;;;;8.38;6.05;;;;;;;;;;6285013;22;20150;-64
2021/10/20 11:21:20;;;;;;;9.48;6.15;;;;;;;;;;6284289;22;20222;-64
2021/10/20 11:23:46;;;;;;;6.85;6.15;;;;;;;;;;6283297;22;20248;-64
2021/10/20 11:26:12;;;;;;;7.85;6.10;;;;;;;;;;6282868;22;20174;-64
2021/10/20 11:28:38;;;;;;;8.52;6.30;;;;;;;;;;6282995;22;20450;-64
2021/10/20 11:31:08;;;;;;;6.65;5.80;;;;;;;;;;6283664;22;20143;-64
2021/10/20 11:33:34;;;;;;;6.47;5.72;;;;;;;;;;6282267;22;20190;-64
2021/10/20 11:36:00;;;;;;;7.45;5.88;;;;;;;;;;6281604;22;20151;-64
2021/10/20 11:38:32;;;;;;;7.63;6.35;;;;;;;;;;6282420;22;20149;-64
2021/10/20 11:40:58;;;;;;;8.15;6.35;;;;;;;;;;6282397;22;20131;-64
2021/10/20 11:43:27;;;;;;;7.90;6.47;;;;;;;;;;6282564;22;20163;-64
2021/10/20 11:45:53;;;;;;;8.32;6.43;;;;;;;;;;6283016;22;20139;-64
2021/10/20 11:48:20;;;;;;;7.97;6.00;;;;;;;;;;6282870;22;20202;-64
2021/10/20 11:50:57;;;;;;;8.00;6.15;;;;;;;;;;6283119;22;20407;-64
2021/10/20 11:53:23;;;;;;;7.35;5.78;;;;;;;;;;6282870;22;20150;-64
2021/10/20 11:55:52;;;;;;;8.75;6.95;;;;;;;;;;6257760;22;20200;-64
2021/10/20 11:58:26;;;;;;;6.95;6.05;;;;;;;;;;6285109;22;20144;-64
2021/10/20 12:00:53;;;;;;;8.05;6.15;;;;;;;;;;6284524;22;20152;-64
2021/10/20 12:03:19;;;;;;;7.30;5.82;;;;;;;;;;6284094;22;20170;-63
2021/10/20 12:05:45;;;;;;;10.73;6.10;;;;;;;;;;6284754;22;20398;-64
2021/10/20 12:08:11;;;;;;;7.43;5.75;;;;;;;;;;6284985;22;20231;-64
2021/10/20 12:10:37;;;;;;;7.45;5.72;;;;;;;;;;6284442;22;20144;-63
2021/10/20 12:13:04;;;;;;;8.30;6.43;;;;;;;;;;6283616;22;20143;-64
2021/10/20 12:15:30;;;;;;;6.18;5.47;;;;;;;;;;6283358;22;20140;-64
2021/10/20 12:17:56;;;;;;;7.47;6.03;;;;;;;;;;6283864;22;20196;-64
2021/10/20 12:20:22;;;;;;;6.57;5.63;;;;;;;;;;6283670;22;20143;-64
2021/10/20 12:22:49;;;;;;;7.40;5.93;;;;;;;;;;6281421;22;20167;-64
2021/10/20 12:25:15;;;;;;;7.50;6.38;;;;;;;;;;6279519;22;20410;-64
2021/10/20 12:27:42;;;;;;;7.38;6.10;;;;;;;;;;6279270;22;20499;-64
2021/10/20 12:30:09;;;;;;;7.75;6.22;;;;;;;;;;6279253;22;20139;-64
2021/10/20 12:32:36;;;;;;;7.32;5.32;;;;;;;;;;6279919;22;20440;-64
2021/10/20 12:35:05;;;;;;;7.07;5.75;;;;;;;;;;6279738;22;20138;-64
2021/10/20 12:37:36;;;;;;;8.68;6.03;;;;;;;;;;6279077;22;20501;-64
2021/10/20 12:40:10;;;;;;;7.45;6.20;;;;;;;;;;6279387;22;20178;-64
2021/10/20 12:42:45;;;;;;;6.93;5.32;;;;;;;;;;6279152;22;20274;-64
2021/10/20 12:45:11;;;;;;;7.15;5.65;;;;;;;;;;6279440;22;20205;-64
2021/10/20 12:47:42;;;;;;;7.07;5.15;;;;;;;;;;6279419;22;20166;-64
2021/10/20 12:50:08;;;;;;;9.88;6.05;;;;;;;;;;6279411;22;20167;-64
2021/10/20 12:52:38;;;;;;;7.00;5.55;;;;;;;;;;6280526;22;20139;-64
2021/10/20 12:55:05;;;;;;;8.82;5.60;;;;;;;;;;6279204;22;20139;-64
2021/10/20 12:57:32;;;;;;;8.65;5.70;;;;;;;;;;6279224;22;20157;-64
2021/10/20 13:00:04;;;;;;;6.93;5.22;;;;;;;;;;6279509;22;20143;-64
2021/10/20 13:02:30;;;;;;;6.70;5.30;;;;;;;;;;6251931;22;20224;-64
2021/10/20 13:04:57;;;;;;;6.90;5.30;;;;;;;;;;6278492;22;20139;-64
2021/10/20 13:07:23;;;;;;;8.35;5.05;;;;;;;;;;6278722;22;20151;-64
2021/10/20 13:09:49;;;;;;;7.18;5.20;;;;;;;;;;6279043;22;20139;-64
2021/10/20 13:12:15;;;;;;;5.78;5.10;;;;;;;;;;6278375;22;20225;-64
2021/10/20 13:14:41;;;;;;;5.70;5.10;;;;;;;;;;6278706;22;20499;-64
2021/10/20 13:17:07;;;;;;;5.95;5.00;;;;;;;;;;6278766;22;20162;-64
2021/10/20 13:19:33;;;;;;;7.38;4.88;;;;;;;;;;6278409;22;20213;-64
2021/10/20 13:21:59;;;;;;;6.25;5.28;;;;;;;;;;6278596;22;20151;-64
2021/10/20 13:24:25;;;;;;;5.85;4.97;;;;;;;;;;6278379;22;20154;-64
2021/10/20 13:26:50;;;;;;;5.80;5.13;;;;;;;;;;6278463;22;20151;-64
2021/10/20 13:29:16;;;;;;;5.63;5.05;;;;;;;;;;6278715;22;20537;-64
2021/10/20 13:31:42;;;;;;;5.57;4.82;;;;;;;;;;6278303;22;20225;-65
2021/10/20 13:34:08;;;;;;;6.43;5.50;;;;;;;;;;6278429;22;20153;-64
2021/10/20 13:36:34;;;;;;;6.68;5.10;;;;;;;;;;6278210;22;20163;-65
2021/10/20 13:39:02;;;;;;;6.82;5.72;;;;;;;;;;6278605;22;20189;-64
2021/10/20 13:41:28;;;;;;;6.80;4.80;;;;;;;;;;6278836;22;20213;-65
2021/10/20 13:43:54;;;;;;;7.18;5.10;;;;;;;;;;6278147;22;20167;-64
2021/10/20 13:46:20;;;;;;;6.53;4.88;;;;;;;;;;6277942;22;20453;-64
2021/10/20 13:48:46;;;;;;;7.90;5.07;;;;;;;;;;6278611;22;20213;-64
2021/10/20 13:51:12;;;;;;;7.82;4.90;;;;;;;;;;6278240;22;20210;-64
2021/10/20 13:53:38;;;;;;;6.13;5.03;;;;;;;;;;6277987;22;20197;-64
2021/10/20 13:56:04;;;;;;;7.03;5.32;;;;;;;;;;6278254;22;20143;-65
2021/10/20 13:58:30;;;;;;;6.75;5.32;;;;;;;;;;6277962;22;20147;-64
2021/10/20 14:00:57;;;;;;;5.57;4.63;;;;;;;;;;6278082;22;20501;-65
2021/10/20 14:03:23;;;;;;;5.97;4.68;;;;;;;;;;6277914;22;20175;-64
2021/10/20 14:05:49;;;;;;;5.97;5.10;;;;;;;;;;6278108;22;20190;-65
2021/10/20 14:08:15;;;;;;;5.53;4.50;;;;;;;;;;6277599;22;20143;-64
2021/10/20 14:10:41;;;;;;;7.43;4.70;;;;;;;;;;6277744;22;20136;-64
2021/10/20 14:13:06;;;;;;;6.68;5.63;;;;;;;;;;6277623;22;20146;-65
2021/10/20 14:15:32;;;;;;;6.25;4.78;;;;;;;;;;6277473;22;20226;-65
2021/10/20 14:17:58;;;;;;;7.38;4.72;;;;;;;;;;6278069;22;20192;-65
2021/10/20 14:20:25;;;;;;;5.28;4.78;;;;;;;;;;6278421;22;20170;-64
2021/10/20 14:22:51;;;;;;;6.20;5.13;;;;;;;;;;6278831;22;20194;-64
2021/10/20 14:25:18;;;;;;;6.75;4.93;;;;;;;;;;6278332;22;20147;-64
2021/10/20 14:27:44;;;;;;;7.50;5.28;;;;;;;;;;6278687;22;20474;-64
2021/10/20 14:30:11;;;;;;;6.85;5.25;;;;;;;;;;6277820;22;20583;-64
2021/10/20 14:32:37;;;;;;;6.28;4.97;;;;;;;;;;6278519;22;20158;-64